sensor_id;sensor_type;location;lat;lon;timestamp;temperature;humidity
56162;DHT22;42045;52.986;6.014;2022-08-21T00:00:15;14.70;99.90
56162;DHT22;42045;52.986;6.014;2022-08-21T00:02:49;14.70;99.90
56162;DHT22;42045;52.986;6.014;2022-08-21T00:05:17;14.70;99.90
56162;DHT22;42045;52.986;6.014;2022-08-21T00:07:43;14.70;99.90
56162;DHT22;42045;52.986;6.014;2022-08-21T00:10:09;14.70;99.90
56162;DHT22;42045;52.986;6.014;2022-08-21T00:12:37;14.70;99.90
56162;DHT22;42045;52.986;6.014;2022-08-21T00:15:06;14.70;99.90
56162;DHT22;42045;52.986;6.014;2022-08-21T00:17:32;14.60;99.90
56162;DHT22;42045;52.986;6.014;2022-08-21T00:19:59;14.60;99.90
56162;DHT22;42045;52.986;6.014;2022-08-21T00:22:25;14.60;99.90
56162;DHT22;42045;52.986;6.014;2022-08-21T00:24:51;14.60;99.90
56162;DHT22;42045;52.986;6.014;2022-08-21T00:27:17;14.60;99.90
56162;DHT22;42045;52.986;6.014;2022-08-21T00:29:43;14.50;99.90
56162;DHT22;42045;52.986;6.014;2022-08-21T00:32:09;14.50;99.90
56162;DHT22;42045;52.986;6.014;2022-08-21T00:34:35;14.50;99.90
56162;DHT22;42045;52.986;6.014;2022-08-21T00:37:01;14.50;99.90
56162;DHT22;42045;52.986;6.014;2022-08-21T00:39:27;14.50;99.90
56162;DHT22;42045;52.986;6.014;2022-08-21T00:41:53;14.50;99.90
56162;DHT22;42045;52.986;6.014;2022-08-21T00:44:19;14.50;99.90
56162;DHT22;42045;52.986;6.014;2022-08-21T00:46:45;14.50;99.90
56162;DHT22;42045;52.986;6.014;2022-08-21T00:49:12;14.50;99.90
56162;DHT22;42045;52.986;6.014;2022-08-21T00:51:43;14.50;99.90
56162;DHT22;42045;52.986;6.014;2022-08-21T00:54:11;14.50;99.90
56162;DHT22;42045;52.986;6.014;2022-08-21T00:56:39;14.50;99.90
56162;DHT22;42045;52.986;6.014;2022-08-21T00:59:06;14.40;99.90
56162;DHT22;42045;52.986;6.014;2022-08-21T01:01:33;14.40;99.90
56162;DHT22;42045;52.986;6.014;2022-08-21T01:03:59;14.40;99.90
56162;DHT22;42045;52.986;6.014;2022-08-21T01:06:25;14.40;99.90
56162;DHT22;42045;52.986;6.014;2022-08-21T01:08:52;14.40;99.90
56162;DHT22;42045;52.986;6.014;2022-08-21T01:11:18;14.40;99.90
56162;DHT22;42045;52.986;6.014;2022-08-21T01:13:45;14.40;99.90
56162;DHT22;42045;52.986;6.014;2022-08-21T01:16:14;14.40;99.90
56162;DHT22;42045;52.986;6.014;2022-08-21T01:18:44;14.30;99.90
56162;DHT22;42045;52.986;6.014;2022-08-21T01:21:17;14.30;99.90
56162;DHT22;42045;52.986;6.014;2022-08-21T01:23:45;14.30;99.90
56162;DHT22;42045;52.986;6.014;2022-08-21T01:26:14;14.30;99.90
56162;DHT22;42045;52.986;6.014;2022-08-21T01:28:54;14.20;99.90
56162;DHT22;42045;52.986;6.014;2022-08-21T01:31:25;14.20;99.90
56162;DHT22;42045;52.986;6.014;2022-08-21T01:33:51;14.20;99.90
56162;DHT22;42045;52.986;6.014;2022-08-21T01:36:17;14.20;99.90
56162;DHT22;42045;52.986;6.014;2022-08-21T01:38:43;14.10;99.90
56162;DHT22;42045;52.986;6.014;2022-08-21T01:41:09;14.10;99.90
56162;DHT22;42045;52.986;6.014;2022-08-21T01:43:36;14.00;99.90
56162;DHT22;42045;52.986;6.014;2022-08-21T01:46:03;14.00;99.90
56162;DHT22;42045;52.986;6.014;2022-08-21T01:48:30;14.00;99.90
56162;DHT22;42045;52.986;6.014;2022-08-21T01:50:56;13.90;99.90
56162;DHT22;42045;52.986;6.014;2022-08-21T01:53:22;14.00;99.90
56162;DHT22;42045;52.986;6.014;2022-08-21T01:55:49;14.00;99.90
56162;DHT22;42045;52.986;6.014;2022-08-21T01:58:15;13.90;99.90
56162;DHT22;42045;52.986;6.014;2022-08-21T02:00:41;13.90;99.90
56162;DHT22;42045;52.986;6.014;2022-08-21T02:03:07;13.90;99.90
56162;DHT22;42045;52.986;6.014;2022-08-21T02:05:33;14.00;99.90
56162;DHT22;42045;52.986;6.014;2022-08-21T02:07:59;13.90;99.90
56162;DHT22;42045;52.986;6.014;2022-08-21T02:10:28;13.90;99.90
56162;DHT22;42045;52.986;6.014;2022-08-21T02:12:55;14.00;99.90
56162;DHT22;42045;52.986;6.014;2022-08-21T02:15:21;14.00;99.90
56162;DHT22;42045;52.986;6.014;2022-08-21T02:17:53;14.00;99.90
56162;DHT22;42045;52.986;6.014;2022-08-21T02:20:27;14.00;99.90
56162;DHT22;42045;52.986;6.014;2022-08-21T02:22:53;14.00;99.90
56162;DHT22;42045;52.986;6.014;2022-08-21T02:25:21;14.00;99.90
56162;DHT22;42045;52.986;6.014;2022-08-21T02:27:48;14.00;99.90
56162;DHT22;42045;52.986;6.014;2022-08-21T02:30:22;14.00;99.90
56162;DHT22;42045;52.986;6.014;2022-08-21T02:32:49;14.00;99.90
56162;DHT22;42045;52.986;6.014;2022-08-21T02:35:15;14.00;99.90
56162;DHT22;42045;52.986;6.014;2022-08-21T02:40:17;14.00;99.90
56162;DHT22;42045;52.986;6.014;2022-08-21T02:42:43;14.00;99.90
56162;DHT22;42045;52.986;6.014;2022-08-21T02:45:11;14.00;99.90
56162;DHT22;42045;52.986;6.014;2022-08-21T02:47:37;14.10;99.90
56162;DHT22;42045;52.986;6.014;2022-08-21T02:50:05;14.00;99.90
56162;DHT22;42045;52.986;6.014;2022-08-21T02:52:31;14.00;99.90
56162;DHT22;42045;52.986;6.014;2022-08-21T02:54:57;14.00;99.90
56162;DHT22;42045;52.986;6.014;2022-08-21T02:57:24;14.00;99.90
56162;DHT22;42045;52.986;6.014;2022-08-21T02:59:50;14.00;99.90
56162;DHT22;42045;52.986;6.014;2022-08-21T03:02:16;14.00;99.90
56162;DHT22;42045;52.986;6.014;2022-08-21T03:04:42;14.10;99.90
56162;DHT22;42045;52.986;6.014;2022-08-21T03:07:08;14.00;99.90
56162;DHT22;42045;52.986;6.014;2022-08-21T03:09:34;14.00;99.90
56162;DHT22;42045;52.986;6.014;2022-08-21T03:12:00;14.00;99.90
56162;DHT22;42045;52.986;6.014;2022-08-21T03:14:26;13.90;99.90
56162;DHT22;42045;52.986;6.014;2022-08-21T03:16:51;13.90;99.90
56162;DHT22;42045;52.986;6.014;2022-08-21T03:19:18;13.90;99.90
56162;DHT22;42045;52.986;6.014;2022-08-21T03:21:44;13.90;99.90
56162;DHT22;42045;52.986;6.014;2022-08-21T03:24:10;13.90;99.90
56162;DHT22;42045;52.986;6.014;2022-08-21T03:26:35;13.90;99.90
56162;DHT22;42045;52.986;6.014;2022-08-21T03:29:02;13.90;99.90
56162;DHT22;42045;52.986;6.014;2022-08-21T03:31:28;13.90;99.90
56162;DHT22;42045;52.986;6.014;2022-08-21T03:33:57;13.90;99.90
56162;DHT22;42045;52.986;6.014;2022-08-21T03:36:23;13.90;99.90
56162;DHT22;42045;52.986;6.014;2022-08-21T03:38:49;13.90;99.90
56162;DHT22;42045;52.986;6.014;2022-08-21T03:41:16;13.90;99.90
56162;DHT22;42045;52.986;6.014;2022-08-21T03:43:41;13.90;99.90
56162;DHT22;42045;52.986;6.014;2022-08-21T03:46:07;13.90;99.90
56162;DHT22;42045;52.986;6.014;2022-08-21T03:48:35;13.90;99.90
56162;DHT22;42045;52.986;6.014;2022-08-21T03:51:01;13.90;99.90
56162;DHT22;42045;52.986;6.014;2022-08-21T03:53:27;13.90;99.90
56162;DHT22;42045;52.986;6.014;2022-08-21T03:55:53;13.80;99.90
56162;DHT22;42045;52.986;6.014;2022-08-21T03:58:23;13.80;99.90
56162;DHT22;42045;52.986;6.014;2022-08-21T04:00:52;13.80;99.90
56162;DHT22;42045;52.986;6.014;2022-08-21T04:03:21;13.80;99.90
56162;DHT22;42045;52.986;6.014;2022-08-21T04:05:47;13.80;99.90
56162;DHT22;42045;52.986;6.014;2022-08-21T04:08:14;13.80;99.90
56162;DHT22;42045;52.986;6.014;2022-08-21T04:10:41;13.80;99.90
56162;DHT22;42045;52.986;6.014;2022-08-21T04:13:08;13.80;99.90
56162;DHT22;42045;52.986;6.014;2022-08-21T04:15:35;13.80;99.90
56162;DHT22;42045;52.986;6.014;2022-08-21T04:18:02;13.80;99.90
56162;DHT22;42045;52.986;6.014;2022-08-21T04:20:28;13.70;99.90
56162;DHT22;42045;52.986;6.014;2022-08-21T04:22:54;13.80;99.90
56162;DHT22;42045;52.986;6.014;2022-08-21T04:25:22;13.80;99.90
56162;DHT22;42045;52.986;6.014;2022-08-21T04:27:48;13.80;99.90
56162;DHT22;42045;52.986;6.014;2022-08-21T04:30:15;13.80;99.90
56162;DHT22;42045;52.986;6.014;2022-08-21T04:32:46;13.80;99.90
56162;DHT22;42045;52.986;6.014;2022-08-21T04:35:14;13.80;99.90
56162;DHT22;42045;52.986;6.014;2022-08-21T04:37:40;13.90;99.90
56162;DHT22;42045;52.986;6.014;2022-08-21T04:40:14;13.90;99.90
56162;DHT22;42045;52.986;6.014;2022-08-21T04:42:51;13.90;99.90
56162;DHT22;42045;52.986;6.014;2022-08-21T04:45:28;14.00;99.90
56162;DHT22;42045;52.986;6.014;2022-08-21T04:47:59;14.00;99.90
56162;DHT22;42045;52.986;6.014;2022-08-21T04:50:29;14.00;99.90
56162;DHT22;42045;52.986;6.014;2022-08-21T04:52:56;14.00;99.90
56162;DHT22;42045;52.986;6.014;2022-08-21T04:55:24;14.10;99.90
56162;DHT22;42045;52.986;6.014;2022-08-21T04:57:51;14.10;99.90
56162;DHT22;42045;52.986;6.014;2022-08-21T05:00:20;14.20;99.90
56162;DHT22;42045;52.986;6.014;2022-08-21T05:02:47;14.20;99.90
56162;DHT22;42045;52.986;6.014;2022-08-21T05:05:15;14.20;99.90
56162;DHT22;42045;52.986;6.014;2022-08-21T05:07:42;14.30;99.90
56162;DHT22;42045;52.986;6.014;2022-08-21T05:10:10;14.40;99.90
56162;DHT22;42045;52.986;6.014;2022-08-21T05:12:36;14.50;99.90
56162;DHT22;42045;52.986;6.014;2022-08-21T05:15:03;14.60;99.90
56162;DHT22;42045;52.986;6.014;2022-08-21T05:17:29;14.70;99.90
56162;DHT22;42045;52.986;6.014;2022-08-21T05:19:57;14.80;99.90
56162;DHT22;42045;52.986;6.014;2022-08-21T05:22:23;15.30;99.90
56162;DHT22;42045;52.986;6.014;2022-08-21T05:24:50;16.40;99.90
56162;DHT22;42045;52.986;6.014;2022-08-21T05:27:16;17.40;99.90
56162;DHT22;42045;52.986;6.014;2022-08-21T05:29:43;18.40;99.90
56162;DHT22;42045;52.986;6.014;2022-08-21T05:32:13;19.20;99.90
56162;DHT22;42045;52.986;6.014;2022-08-21T05:34:39;19.90;99.90
56162;DHT22;42045;52.986;6.014;2022-08-21T05:37:05;20.50;99.90
56162;DHT22;42045;52.986;6.014;2022-08-21T05:39:32;21.00;99.90
56162;DHT22;42045;52.986;6.014;2022-08-21T05:41:58;21.50;99.90
56162;DHT22;42045;52.986;6.014;2022-08-21T05:44:24;21.90;99.90
56162;DHT22;42045;52.986;6.014;2022-08-21T05:46:50;22.30;99.90
56162;DHT22;42045;52.986;6.014;2022-08-21T05:49:16;22.70;99.90
56162;DHT22;42045;52.986;6.014;2022-08-21T05:51:42;23.20;99.90
56162;DHT22;42045;52.986;6.014;2022-08-21T05:54:08;23.60;99.90
56162;DHT22;42045;52.986;6.014;2022-08-21T05:56:34;23.90;99.90
56162;DHT22;42045;52.986;6.014;2022-08-21T05:59:00;24.20;99.90
56162;DHT22;42045;52.986;6.014;2022-08-21T06:01:26;24.70;99.90
56162;DHT22;42045;52.986;6.014;2022-08-21T06:03:52;24.90;99.90
56162;DHT22;42045;52.986;6.014;2022-08-21T06:06:18;25.00;99.90
56162;DHT22;42045;52.986;6.014;2022-08-21T06:08:44;25.40;99.50
56162;DHT22;42045;52.986;6.014;2022-08-21T06:11:11;25.60;99.70
56162;DHT22;42045;52.986;6.014;2022-08-21T06:13:37;25.90;98.80
56162;DHT22;42045;52.986;6.014;2022-08-21T06:16:13;26.20;97.80
56162;DHT22;42045;52.986;6.014;2022-08-21T06:18:40;26.60;97.80
56162;DHT22;42045;52.986;6.014;2022-08-21T06:21:06;26.90;96.90
56162;DHT22;42045;52.986;6.014;2022-08-21T06:23:33;27.20;96.80
56162;DHT22;42045;52.986;6.014;2022-08-21T06:26:00;27.00;96.10
56162;DHT22;42045;52.986;6.014;2022-08-21T06:28:27;27.40;95.80
56162;DHT22;42045;52.986;6.014;2022-08-21T06:30:54;27.40;95.40
56162;DHT22;42045;52.986;6.014;2022-08-21T06:33:20;27.60;95.20
56162;DHT22;42045;52.986;6.014;2022-08-21T06:35:46;27.80;95.00
56162;DHT22;42045;52.986;6.014;2022-08-21T06:38:12;27.90;94.40
56162;DHT22;42045;52.986;6.014;2022-08-21T06:40:39;28.00;94.70
56162;DHT22;42045;52.986;6.014;2022-08-21T06:43:08;28.20;94.60
56162;DHT22;42045;52.986;6.014;2022-08-21T06:45:35;28.10;94.50
56162;DHT22;42045;52.986;6.014;2022-08-21T06:48:01;27.90;94.70
56162;DHT22;42045;52.986;6.014;2022-08-21T06:50:27;27.50;94.70
56162;DHT22;42045;52.986;6.014;2022-08-21T06:53:20;26.20;95.60
56162;DHT22;42045;52.986;6.014;2022-08-21T06:55:47;24.60;97.50
56162;DHT22;42045;52.986;6.014;2022-08-21T06:58:14;23.40;98.80
56162;DHT22;42045;52.986;6.014;2022-08-21T07:00:44;22.80;99.90
56162;DHT22;42045;52.986;6.014;2022-08-21T07:03:29;22.20;99.90
56162;DHT22;42045;52.986;6.014;2022-08-21T07:05:58;22.00;99.90
56162;DHT22;42045;52.986;6.014;2022-08-21T07:08:26;21.90;99.90
56162;DHT22;42045;52.986;6.014;2022-08-21T07:10:55;22.30;99.90
56162;DHT22;42045;52.986;6.014;2022-08-21T07:13:22;22.70;99.90
56162;DHT22;42045;52.986;6.014;2022-08-21T07:15:48;23.20;99.90
56162;DHT22;42045;52.986;6.014;2022-08-21T07:18:14;23.30;99.90
56162;DHT22;42045;52.986;6.014;2022-08-21T07:20:41;23.50;99.90
56162;DHT22;42045;52.986;6.014;2022-08-21T07:23:34;23.80;99.90
56162;DHT22;42045;52.986;6.014;2022-08-21T07:26:01;23.70;99.90
56162;DHT22;42045;52.986;6.014;2022-08-21T07:28:28;23.50;99.90
56162;DHT22;42045;52.986;6.014;2022-08-21T07:30:56;23.60;99.90
56162;DHT22;42045;52.986;6.014;2022-08-21T07:33:23;23.40;99.90
56162;DHT22;42045;52.986;6.014;2022-08-21T07:35:49;23.20;99.90
56162;DHT22;42045;52.986;6.014;2022-08-21T07:38:16;23.20;99.90
56162;DHT22;42045;52.986;6.014;2022-08-21T07:40:42;23.10;99.90
56162;DHT22;42045;52.986;6.014;2022-08-21T07:43:08;23.00;99.90
56162;DHT22;42045;52.986;6.014;2022-08-21T07:45:34;23.30;99.90
56162;DHT22;42045;52.986;6.014;2022-08-21T07:48:00;23.40;99.90
56162;DHT22;42045;52.986;6.014;2022-08-21T07:50:26;23.40;99.90
56162;DHT22;42045;52.986;6.014;2022-08-21T07:52:53;23.50;99.90
56162;DHT22;42045;52.986;6.014;2022-08-21T07:55:21;23.60;99.90
56162;DHT22;42045;52.986;6.014;2022-08-21T07:57:47;23.60;99.90
56162;DHT22;42045;52.986;6.014;2022-08-21T08:00:27;23.60;99.90
56162;DHT22;42045;52.986;6.014;2022-08-21T08:02:55;23.70;99.90
56162;DHT22;42045;52.986;6.014;2022-08-21T08:05:24;23.80;99.90
56162;DHT22;42045;52.986;6.014;2022-08-21T08:07:50;23.80;99.90
56162;DHT22;42045;52.986;6.014;2022-08-21T08:10:17;23.90;99.90
56162;DHT22;42045;52.986;6.014;2022-08-21T08:12:44;23.90;99.90
56162;DHT22;42045;52.986;6.014;2022-08-21T08:15:17;23.80;99.90
56162;DHT22;42045;52.986;6.014;2022-08-21T08:17:44;24.10;99.90
56162;DHT22;42045;52.986;6.014;2022-08-21T08:20:12;24.10;99.90
56162;DHT22;42045;52.986;6.014;2022-08-21T08:22:39;24.10;99.90
56162;DHT22;42045;52.986;6.014;2022-08-21T08:25:08;24.20;99.90
56162;DHT22;42045;52.986;6.014;2022-08-21T08:27:34;24.40;99.90
56162;DHT22;42045;52.986;6.014;2022-08-21T08:30:00;24.50;99.90
56162;DHT22;42045;52.986;6.014;2022-08-21T08:32:27;24.70;99.90
56162;DHT22;42045;52.986;6.014;2022-08-21T08:34:53;24.60;99.90
56162;DHT22;42045;52.986;6.014;2022-08-21T08:37:20;24.30;99.90
56162;DHT22;42045;52.986;6.014;2022-08-21T08:39:47;24.10;99.90
56162;DHT22;42045;52.986;6.014;2022-08-21T08:42:14;23.90;99.90
56162;DHT22;42045;52.986;6.014;2022-08-21T08:44:45;23.90;99.90
56162;DHT22;42045;52.986;6.014;2022-08-21T08:47:16;24.00;99.90
56162;DHT22;42045;52.986;6.014;2022-08-21T08:52:28;24.30;99.90
56162;DHT22;42045;52.986;6.014;2022-08-21T08:57:37;24.60;99.90
56162;DHT22;42045;52.986;6.014;2022-08-21T09:00:09;24.90;99.90
56162;DHT22;42045;52.986;6.014;2022-08-21T09:02:41;25.00;99.90
56162;DHT22;42045;52.986;6.014;2022-08-21T09:05:11;25.00;99.90
56162;DHT22;42045;52.986;6.014;2022-08-21T09:21:38;25.20;99.90
56162;DHT22;42045;52.986;6.014;2022-08-21T09:24:25;25.40;99.90
56162;DHT22;42045;52.986;6.014;2022-08-21T09:27:06;25.40;99.90
56162;DHT22;42045;52.986;6.014;2022-08-21T09:29:37;25.40;99.90
56162;DHT22;42045;52.986;6.014;2022-08-21T09:32:25;25.60;99.90
56162;DHT22;42045;52.986;6.014;2022-08-21T09:35:04;25.80;99.90
56162;DHT22;42045;52.986;6.014;2022-08-21T09:37:32;25.80;99.90
56162;DHT22;42045;52.986;6.014;2022-08-21T09:40:03;25.70;99.90
56162;DHT22;42045;52.986;6.014;2022-08-21T09:42:40;25.50;99.90
56162;DHT22;42045;52.986;6.014;2022-08-21T09:45:17;25.10;99.90
56162;DHT22;42045;52.986;6.014;2022-08-21T09:47:44;25.10;99.90
56162;DHT22;42045;52.986;6.014;2022-08-21T09:50:24;25.20;99.90
56162;DHT22;42045;52.986;6.014;2022-08-21T09:52:54;25.30;99.90
56162;DHT22;42045;52.986;6.014;2022-08-21T09:55:51;25.50;99.90
56162;DHT22;42045;52.986;6.014;2022-08-21T09:58:38;25.60;99.90
56162;DHT22;42045;52.986;6.014;2022-08-21T10:01:06;25.50;99.90
56162;DHT22;42045;52.986;6.014;2022-08-21T10:03:32;25.40;99.90
56162;DHT22;42045;52.986;6.014;2022-08-21T10:06:05;25.40;99.90
56162;DHT22;42045;52.986;6.014;2022-08-21T10:08:36;25.50;99.90
56162;DHT22;42045;52.986;6.014;2022-08-21T10:11:09;25.80;99.60
56162;DHT22;42045;52.986;6.014;2022-08-21T10:13:51;26.10;98.70
56162;DHT22;42045;52.986;6.014;2022-08-21T10:16:49;26.40;99.10
56162;DHT22;42045;52.986;6.014;2022-08-21T10:19:39;26.40;99.40
56162;DHT22;42045;52.986;6.014;2022-08-21T10:25:02;25.90;98.30
56162;DHT22;42045;52.986;6.014;2022-08-21T10:30:36;25.20;99.70
56162;DHT22;42045;52.986;6.014;2022-08-21T10:49:31;24.10;99.90
56162;DHT22;42045;52.986;6.014;2022-08-21T10:55:04;23.90;99.90
56162;DHT22;42045;52.986;6.014;2022-08-21T11:00:36;23.70;99.90
56162;DHT22;42045;52.986;6.014;2022-08-21T11:03:44;23.60;99.90
56162;DHT22;42045;52.986;6.014;2022-08-21T11:06:24;23.60;99.90
56162;DHT22;42045;52.986;6.014;2022-08-21T11:09:09;23.60;99.90
56162;DHT22;42045;52.986;6.014;2022-08-21T11:14:47;23.60;99.90
56162;DHT22;42045;52.986;6.014;2022-08-21T11:17:18;23.40;99.90
56162;DHT22;42045;52.986;6.014;2022-08-21T11:19:50;23.40;99.90
56162;DHT22;42045;52.986;6.014;2022-08-21T11:22:48;23.40;99.90
56162;DHT22;42045;52.986;6.014;2022-08-21T11:28:22;23.40;99.90
56162;DHT22;42045;52.986;6.014;2022-08-21T11:36:46;23.20;99.90
56162;DHT22;42045;52.986;6.014;2022-08-21T11:39:35;23.00;99.90
56162;DHT22;42045;52.986;6.014;2022-08-21T11:44:48;22.70;99.90
56162;DHT22;42045;52.986;6.014;2022-08-21T11:47:27;22.80;99.90
56162;DHT22;42045;52.986;6.014;2022-08-21T11:50:17;22.90;99.90
56162;DHT22;42045;52.986;6.014;2022-08-21T11:52:48;22.90;99.90
56162;DHT22;42045;52.986;6.014;2022-08-21T11:55:29;22.90;99.90
56162;DHT22;42045;52.986;6.014;2022-08-21T11:58:22;22.90;99.90
56162;DHT22;42045;52.986;6.014;2022-08-21T12:00:56;22.80;99.90
56162;DHT22;42045;52.986;6.014;2022-08-21T12:03:28;22.80;99.90
56162;DHT22;42045;52.986;6.014;2022-08-21T12:06:15;22.70;99.90
56162;DHT22;42045;52.986;6.014;2022-08-21T12:08:45;22.70;99.90
56162;DHT22;42045;52.986;6.014;2022-08-21T12:16:41;22.40;99.90
56162;DHT22;42045;52.986;6.014;2022-08-21T12:19:13;22.30;99.90
56162;DHT22;42045;52.986;6.014;2022-08-21T12:27:44;22.50;99.90
56162;DHT22;42045;52.986;6.014;2022-08-21T12:30:04;22.50;99.90
56162;DHT22;42045;52.986;6.014;2022-08-21T12:35:14;22.60;99.90
56162;DHT22;42045;52.986;6.014;2022-08-21T12:37:44;22.70;99.90
56162;DHT22;42045;52.986;6.014;2022-08-21T12:40:25;22.70;99.90
56162;DHT22;42045;52.986;6.014;2022-08-21T12:43:00;22.70;99.90
56162;DHT22;42045;52.986;6.014;2022-08-21T12:45:36;22.70;99.90
56162;DHT22;42045;52.986;6.014;2022-08-21T12:48:11;22.60;99.90
56162;DHT22;42045;52.986;6.014;2022-08-21T12:50:45;22.50;99.90
56162;DHT22;42045;52.986;6.014;2022-08-21T12:53:39;22.50;99.90
56162;DHT22;42045;52.986;6.014;2022-08-21T12:56:14;22.50;99.90
56162;DHT22;42045;52.986;6.014;2022-08-21T12:58:45;22.60;99.90
56162;DHT22;42045;52.986;6.014;2022-08-21T13:01:32;22.60;99.90
56162;DHT22;42045;52.986;6.014;2022-08-21T13:04:13;22.90;99.90
56162;DHT22;42045;52.986;6.014;2022-08-21T13:06:45;23.10;99.90
56162;DHT22;42045;52.986;6.014;2022-08-21T13:09:14;23.20;99.90
56162;DHT22;42045;52.986;6.014;2022-08-21T13:11:42;23.60;99.90
56162;DHT22;42045;52.986;6.014;2022-08-21T13:14:30;23.70;99.90
56162;DHT22;42045;52.986;6.014;2022-08-21T13:16:59;23.80;99.90
56162;DHT22;42045;52.986;6.014;2022-08-21T13:19:26;23.90;99.90
56162;DHT22;42045;52.986;6.014;2022-08-21T13:21:52;24.10;99.90
56162;DHT22;42045;52.986;6.014;2022-08-21T13:24:33;24.30;99.90
56162;DHT22;42045;52.986;6.014;2022-08-21T13:27:00;24.30;99.90
56162;DHT22;42045;52.986;6.014;2022-08-21T13:29:32;24.40;99.90
56162;DHT22;42045;52.986;6.014;2022-08-21T13:32:03;24.40;99.90
56162;DHT22;42045;52.986;6.014;2022-08-21T13:34:36;24.40;99.90
56162;DHT22;42045;52.986;6.014;2022-08-21T13:37:08;24.40;99.90
56162;DHT22;42045;52.986;6.014;2022-08-21T13:39:34;24.40;99.90
56162;DHT22;42045;52.986;6.014;2022-08-21T13:42:02;24.30;99.70
56162;DHT22;42045;52.986;6.014;2022-08-21T13:44:40;24.20;99.90
56162;DHT22;42045;52.986;6.014;2022-08-21T13:47:09;24.00;99.00
56162;DHT22;42045;52.986;6.014;2022-08-21T13:49:42;24.20;99.80
56162;DHT22;42045;52.986;6.014;2022-08-21T13:52:20;24.40;99.90
56162;DHT22;42045;52.986;6.014;2022-08-21T13:54:58;24.40;98.30
56162;DHT22;42045;52.986;6.014;2022-08-21T13:57:28;24.60;98.40
56162;DHT22;42045;52.986;6.014;2022-08-21T14:00:25;24.60;97.80
56162;DHT22;42045;52.986;6.014;2022-08-21T14:02:52;24.60;97.00
56162;DHT22;42045;52.986;6.014;2022-08-21T14:05:27;24.40;97.40
56162;DHT22;42045;52.986;6.014;2022-08-21T14:08:13;24.50;97.30
56162;DHT22;42045;52.986;6.014;2022-08-21T14:10:46;24.10;96.90
56162;DHT22;42045;52.986;6.014;2022-08-21T14:15:56;23.80;97.50
56162;DHT22;42045;52.986;6.014;2022-08-21T14:18:23;23.90;98.50
56162;DHT22;42045;52.986;6.014;2022-08-21T14:20:52;23.90;97.40
56162;DHT22;42045;52.986;6.014;2022-08-21T14:23:28;24.10;97.60
56162;DHT22;42045;52.986;6.014;2022-08-21T14:25:59;24.10;97.10
56162;DHT22;42045;52.986;6.014;2022-08-21T14:28:34;24.00;96.80
56162;DHT22;42045;52.986;6.014;2022-08-21T14:31:19;24.00;96.40
56162;DHT22;42045;52.986;6.014;2022-08-21T14:33:46;24.10;96.40
56162;DHT22;42045;52.986;6.014;2022-08-21T14:36:11;24.10;97.10
56162;DHT22;42045;52.986;6.014;2022-08-21T14:38:39;24.20;96.20
56162;DHT22;42045;52.986;6.014;2022-08-21T14:41:22;24.30;96.60
56162;DHT22;42045;52.986;6.014;2022-08-21T14:43:48;24.40;96.70
56162;DHT22;42045;52.986;6.014;2022-08-21T14:46:25;24.30;95.70
56162;DHT22;42045;52.986;6.014;2022-08-21T14:48:53;24.10;96.30
56162;DHT22;42045;52.986;6.014;2022-08-21T14:51:19;24.20;96.60
56162;DHT22;42045;52.986;6.014;2022-08-21T14:53:46;24.30;96.80
56162;DHT22;42045;52.986;6.014;2022-08-21T14:56:13;24.20;96.20
56162;DHT22;42045;52.986;6.014;2022-08-21T14:58:44;24.10;96.30
56162;DHT22;42045;52.986;6.014;2022-08-21T15:01:13;24.00;96.30
56162;DHT22;42045;52.986;6.014;2022-08-21T15:03:40;23.90;95.70
56162;DHT22;42045;52.986;6.014;2022-08-21T15:06:07;23.80;96.40
56162;DHT22;42045;52.986;6.014;2022-08-21T15:08:34;23.70;96.10
56162;DHT22;42045;52.986;6.014;2022-08-21T15:11:01;23.50;96.10
56162;DHT22;42045;52.986;6.014;2022-08-21T15:13:28;23.40;96.80
56162;DHT22;42045;52.986;6.014;2022-08-21T15:15:54;23.30;97.20
56162;DHT22;42045;52.986;6.014;2022-08-21T15:18:23;23.20;96.80
56162;DHT22;42045;52.986;6.014;2022-08-21T15:20:49;23.30;96.80
56162;DHT22;42045;52.986;6.014;2022-08-21T15:23:16;23.40;97.00
56162;DHT22;42045;52.986;6.014;2022-08-21T15:25:44;23.40;96.70
56162;DHT22;42045;52.986;6.014;2022-08-21T15:28:12;23.40;96.60
56162;DHT22;42045;52.986;6.014;2022-08-21T15:30:41;23.50;97.20
56162;DHT22;42045;52.986;6.014;2022-08-21T15:33:08;23.60;96.70
56162;DHT22;42045;52.986;6.014;2022-08-21T15:35:34;23.60;96.40
56162;DHT22;42045;52.986;6.014;2022-08-21T15:38:00;23.60;96.30
56162;DHT22;42045;52.986;6.014;2022-08-21T15:40:27;23.60;96.50
56162;DHT22;42045;52.986;6.014;2022-08-21T15:42:57;23.60;96.40
56162;DHT22;42045;52.986;6.014;2022-08-21T15:45:24;23.60;96.50
56162;DHT22;42045;52.986;6.014;2022-08-21T15:47:50;23.60;96.60
56162;DHT22;42045;52.986;6.014;2022-08-21T15:50:16;23.60;96.60
56162;DHT22;42045;52.986;6.014;2022-08-21T15:52:42;23.60;97.20
56162;DHT22;42045;52.986;6.014;2022-08-21T15:55:09;23.60;97.00
56162;DHT22;42045;52.986;6.014;2022-08-21T15:57:37;23.50;97.10
56162;DHT22;42045;52.986;6.014;2022-08-21T16:00:13;23.50;97.00
56162;DHT22;42045;52.986;6.014;2022-08-21T16:02:42;23.50;96.80
56162;DHT22;42045;52.986;6.014;2022-08-21T16:05:10;23.40;97.10
56162;DHT22;42045;52.986;6.014;2022-08-21T16:07:38;23.40;97.40
56162;DHT22;42045;52.986;6.014;2022-08-21T16:10:05;23.30;98.10
56162;DHT22;42045;52.986;6.014;2022-08-21T16:12:34;23.20;98.30
56162;DHT22;42045;52.986;6.014;2022-08-21T16:15:09;23.10;98.30
56162;DHT22;42045;52.986;6.014;2022-08-21T16:17:37;23.10;98.90
56162;DHT22;42045;52.986;6.014;2022-08-21T16:20:08;22.90;98.70
56162;DHT22;42045;52.986;6.014;2022-08-21T16:22:36;22.90;99.20
56162;DHT22;42045;52.986;6.014;2022-08-21T16:25:04;22.90;99.40
56162;DHT22;42045;52.986;6.014;2022-08-21T16:27:30;22.70;99.80
56162;DHT22;42045;52.986;6.014;2022-08-21T16:29:57;22.60;99.70
56162;DHT22;42045;52.986;6.014;2022-08-21T16:32:23;22.50;99.90
56162;DHT22;42045;52.986;6.014;2022-08-21T16:34:49;22.40;99.90
56162;DHT22;42045;52.986;6.014;2022-08-21T16:37:16;22.40;99.90
56162;DHT22;42045;52.986;6.014;2022-08-21T16:39:43;22.40;99.90
56162;DHT22;42045;52.986;6.014;2022-08-21T16:42:15;22.40;99.90
56162;DHT22;42045;52.986;6.014;2022-08-21T16:44:42;22.30;99.90
56162;DHT22;42045;52.986;6.014;2022-08-21T16:47:08;22.30;99.90
56162;DHT22;42045;52.986;6.014;2022-08-21T16:49:35;22.20;99.90
56162;DHT22;42045;52.986;6.014;2022-08-21T16:52:02;22.10;99.90
56162;DHT22;42045;52.986;6.014;2022-08-21T16:54:28;22.10;99.90
56162;DHT22;42045;52.986;6.014;2022-08-21T16:56:56;22.00;99.90
56162;DHT22;42045;52.986;6.014;2022-08-21T16:59:22;22.00;99.90
56162;DHT22;42045;52.986;6.014;2022-08-21T17:01:49;21.90;99.90
56162;DHT22;42045;52.986;6.014;2022-08-21T17:04:15;21.90;99.90
56162;DHT22;42045;52.986;6.014;2022-08-21T17:06:41;21.80;99.90